Flight Track Log - Related Links

Times and Time Zones

All times are in EDT time to prevent confusion due to time zone crossing. See the XA-ASH flight status page for this flight to view local times or setup timezone preferences in your user account.

Time Position Orientation Groundspeed Altitude Reporting Facility
EDT Latitude Longitude Course Direction KTS MPH feet Rate Location/Type
Mon 10:50:27 PM 25.7961 -80.2697 111° Southeast 175 201 800  Level Miami Center
Mon 10:51:33 PM 25.7747 -80.2092 111° Southeast 177 204 4,000 1,932 Climbing Miami Center
Mon 10:52:53 PM 25.7264 -80.2125 184° South 144 166 5,500 1,329 Climbing Miami Center
Mon 10:53:53 PM 25.6853 -80.2828 237° Southwest 170 196 7,100 1,983 Climbing Miami Center
Mon 10:54:51 PM 25.6417 -80.3600 238° Southwest 238 274 9,400 2,300 Climbing Miami Center
Mon 10:55:53 PM 25.5894 -80.4458 236° Southwest 294 338 11,700 1,804 Climbing Miami Center
Mon 10:57:14 PM 25.5369 -80.5364 237° Southwest 323 372 13,700 2,028 Climbing Miami Center
Mon 10:58:15 PM 25.4739 -80.6403 236° Southwest 323 372 16,500 2,390 Climbing Miami Center
Mon 10:59:17 PM 25.4364 -80.7083 239° Southwest 305 351 18,600 1,918 Climbing Miami Center
Mon 11:00:17 PM 25.3908 -80.7803 235° Southwest 300 345 20,400 1,700 Climbing Miami Center
Mon 11:01:17 PM 25.3469 -80.8547 237° Southwest 300 345 22,000 1,627 Climbing Miami Center
Mon 11:02:15 PM 25.3008 -80.9336 237° Southwest 300 345 23,600 1,563 Climbing Miami Center
Mon 11:03:16 PM 25.2528 -81.0125 236° Southwest 300 345 25,100 1,550 Climbing Miami Center
Mon 11:04:15 PM 25.2044 -81.0936 237° Southwest 305 351 26,700 1,563 Climbing Miami Center
Mon 11:05:15 PM 25.1561 -81.1767 237° Southwest 316 364 28,200 1,350 Climbing Miami Center
Mon 11:06:15 PM 25.1036 -81.2597 235° Southwest 323 372 29,400 1,091 Climbing Miami Center
Mon 11:07:16 PM 25.0508 -81.3450 236° Southwest 328 377 30,400 1,000 Climbing Miami Center
Mon 11:08:15 PM 24.9981 -81.4322 236° Southwest 339 390 31,400 992 Climbing Miami Center
Mon 11:09:17 PM 24.9431 -81.5242 237° Southwest 350 403 32,400 992 Climbing Miami Center
Mon 11:10:16 PM 24.8878 -81.6158 236° Southwest 360 414 33,400 950 Climbing Miami Center
Mon 11:11:17 PM 24.8392 -81.7056 239° Southwest 355 409 34,300 958 Climbing Miami Center
Mon 11:12:15 PM 24.7817 -81.7994 236° Southwest 360 414 35,300 1,008 Climbing Miami Center
Mon 11:13:16 PM 24.7181 -81.8906 232° Southwest 370 426 36,300 934 Climbing Miami Center
Mon 11:14:17 PM 24.6628 -81.9819 236° Southwest 370 426 37,200 857 Climbing Miami Center
Mon 11:15:15 PM 24.6094 -82.0711 237° Southwest 365 420 38,000 458 Climbing Miami Center
Mon 11:16:15 PM 24.5497 -82.1644 235° Southwest 370 426 38,100 347 Climbing Miami Center
Mon 11:17:16 PM 24.4942 -82.2581 237° Southwest 370 426 38,700 541 Climbing Miami Center
Mon 11:18:17 PM 24.4386 -82.3536 237° Southwest 370 426 39,200 545 Climbing Miami Center
Mon 11:19:17 PM 24.3767 -82.4467 234° Southwest 376 433 39,800 353 Climbing Miami Center
Mon 11:20:16 PM 24.3167 -82.5397 235° Southwest 376 433 39,900 51 Climbing Miami Center
Mon 11:21:15 PM 24.2586 -82.6394 237° Southwest 382 440 39,900  Level Miami Center
Mon 11:22:17 PM 24.1964 -82.7389 236° Southwest 393 452 39,900  Level Miami Center
Mon 11:23:15 PM 24.1339 -82.8383 235° Southwest 398 458 39,900  Level Miami Center
Mon 11:24:15 PM 24.0692 -82.9397 235° Southwest 406 467 39,900  Level Miami Center
Mon 11:25:17 PM 24.0147 -83.0464 241° Southwest 412 474 39,900  Level Miami Center
Mon 11:26:16 PM 23.9600 -83.1594 242° Southwest 417 480 39,900  Level Miami Center
Mon 11:27:16 PM 23.9092 -83.2703 243° Southwest 417 480 39,900  Level Miami Center
Mon 11:28:15 PM 23.8625 -83.3858 246° West 417 480 39,900  Level Miami Center
Mon 11:29:17 PM 23.8097 -83.4944 242° Southwest 417 480 39,900  Level Miami Center
Mon 11:31:00 PM 23.7220 -83.6809 243° Southwest  Level FlightAware Approximate
Mon 11:38:00 PM 23.3734 -84.4455 244° Southwest  Level FlightAware Approximate
Mon 11:39:00 PM 23.3250 -84.5553 244° Southwest  Level FlightAware Approximate
Mon 11:40:00 PM 23.2765 -84.6649 244° Southwest  Level FlightAware Approximate
Mon 11:41:00 PM 23.2280 -84.7746 244° Southwest  Level FlightAware Approximate
Mon 11:42:00 PM 23.1793 -84.8841 244° Southwest  Level FlightAware Approximate
Mon 11:43:00 PM 23.1302 -84.9933 244° Southwest  Level FlightAware Approximate
Mon 11:44:00 PM 23.0804 -85.1022 244° Southwest  Level FlightAware Approximate
Mon 11:45:00 PM 23.0306 -85.2109 244° Southwest  Level FlightAware Approximate
Mon 11:46:00 PM 22.9806 -85.3196 243° Southwest  Level FlightAware Approximate
Mon 11:47:00 PM 22.9306 -85.4282 243° Southwest  Level FlightAware Approximate
Mon 11:48:00 PM 22.8805 -85.5367 243° Southwest  Level FlightAware Approximate
Mon 11:49:00 PM 22.8305 -85.6452 243° Southwest  Level FlightAware Approximate
Mon 11:50:00 PM 22.7806 -85.7537 243° Southwest  Level FlightAware Approximate
Mon 11:51:00 PM 22.7305 -85.8621 243° Southwest  Level FlightAware Approximate
Mon 11:52:00 PM 22.6804 -85.9705 243° Southwest  Level FlightAware Approximate
Mon 11:53:00 PM 22.6318 -86.0796 245° Southwest  Level FlightAware Approximate
Mon 11:54:00 PM 22.5837 -86.1889 245° Southwest  Level FlightAware Approximate
Mon 11:55:00 PM 22.5356 -86.2982 245° Southwest  Level FlightAware Approximate
Mon 11:56:00 PM 22.4874 -86.4074 244° Southwest  Level FlightAware Approximate
Mon 11:57:00 PM 22.4377 -86.5157 244° Southwest  Level FlightAware Approximate
Mon 11:58:00 PM 22.3877 -86.6239 243° Southwest  Level FlightAware Approximate
Mon 11:59:00 PM 22.3370 -86.7317 243° Southwest  Level FlightAware Approximate
Tue 12:00:00 AM 22.2863 -86.8394 243° Southwest  Level FlightAware Approximate
Tue 12:01:00 AM 22.2354 -86.9470 243° Southwest  Level FlightAware Approximate
Tue 12:02:00 AM 22.1845 -87.0545 243° Southwest  Level FlightAware Approximate
Tue 12:03:00 AM 22.1335 -87.1619 243° Southwest  Level FlightAware Approximate
Tue 12:04:00 AM 22.0825 -87.2693 243° Southwest  Level FlightAware Approximate
Tue 12:05:00 AM 22.0314 -87.3766 243° Southwest  Level FlightAware Approximate
Tue 12:06:00 AM 21.9802 -87.4838 243° Southwest  Level FlightAware Approximate
Tue 12:07:00 AM 21.9289 -87.5909 243° Southwest  Level FlightAware Approximate
Tue 12:08:00 AM 21.8776 -87.6980 243° Southwest  Level FlightAware Approximate
Tue 12:09:00 AM 21.8262 -87.8050 243° Southwest  Level FlightAware Approximate
Tue 12:10:00 AM 21.7747 -87.9119 243° Southwest  Level FlightAware Approximate
Tue 12:11:00 AM 21.7232 -88.0187 243° Southwest  Level FlightAware Approximate
Tue 12:12:00 AM 21.6709 -88.1251 242° Southwest  Level FlightAware Approximate
Tue 12:13:00 AM 21.6180 -88.2310 242° Southwest  Level FlightAware Approximate
Tue 12:14:00 AM 21.5651 -88.3370 242° Southwest  Level FlightAware Approximate
Tue 12:15:00 AM 21.5121 -88.4428 242° Southwest  Level FlightAware Approximate
Tue 12:16:00 AM 21.4594 -88.5487 243° Southwest  Level FlightAware Approximate
Tue 12:17:00 AM 21.4087 -88.6558 243° Southwest  Level FlightAware Approximate
Tue 12:18:00 AM 21.3580 -88.7628 243° Southwest  Level FlightAware Approximate
Tue 12:19:00 AM 21.3072 -88.8697 243° Southwest  Level FlightAware Approximate
Tue 12:20:00 AM 21.2563 -88.9766 243° Southwest  Level FlightAware Approximate
Tue 12:21:00 AM 21.2054 -89.0834 243° Southwest  Level FlightAware Approximate
Tue 12:22:00 AM 21.1544 -89.1900 243° Southwest  Level FlightAware Approximate
Tue 12:23:00 AM 21.1033 -89.2967 243° Southwest  Level FlightAware Approximate
Tue 12:24:00 AM 21.0522 -89.4032 243° Southwest  Level FlightAware Approximate
Tue 12:25:00 AM 21.0009 -89.5097 243° Southwest  Level FlightAware Approximate
Tue 12:26:00 AM 20.9497 -89.6161 243° Southwest  Level FlightAware Approximate
Tue 12:27:00 AM 20.9135 -89.7287 255° West  Level FlightAware Approximate
Tue 12:28:00 AM 20.8842 -89.8443 255° West  Level FlightAware Approximate
Tue 12:29:00 AM 20.8549 -89.9597 255° West  Level FlightAware Approximate
Tue 12:30:00 AM 20.8256 -90.0752 255° West  Level FlightAware Approximate
Tue 12:31:00 AM 20.7961 -90.1905 255° West  Level FlightAware Approximate
Tue 12:32:00 AM 20.7666 -90.3059 255° West  Level FlightAware Approximate
Tue 12:33:00 AM 20.7370 -90.4212 255° West  Level FlightAware Approximate
Tue 12:34:00 AM 20.7064 -90.5361 253° West  Level FlightAware Approximate
Tue 12:35:00 AM 20.6737 -90.6505 253° West  Level FlightAware Approximate
Tue 12:36:00 AM 20.6416 -90.7649 254° West  Level FlightAware Approximate
Tue 12:37:00 AM 20.6107 -90.8797 254° West  Level FlightAware Approximate
Tue 12:38:00 AM 20.5798 -90.9945 254° West  Level FlightAware Approximate
Tue 12:39:00 AM 20.5489 -91.1092 254° West  Level FlightAware Approximate
Tue 12:40:00 AM 20.5180 -91.2240 254° West  Level FlightAware Approximate
Tue 12:41:00 AM 20.4874 -91.3388 254° West  Level FlightAware Approximate
Tue 12:42:00 AM 20.4566 -91.4535 254° West  Level FlightAware Approximate
Tue 12:43:00 AM 20.4258 -91.5682 254° West  Level FlightAware Approximate
Tue 12:44:00 AM 20.3950 -91.6829 254° West  Level FlightAware Approximate
Tue 12:45:00 AM 20.3640 -91.7975 254° West  Level FlightAware Approximate
Tue 12:46:00 AM 20.3330 -91.9120 254° West  Level FlightAware Approximate
Tue 12:47:00 AM 20.3018 -92.0266 254° West  Level FlightAware Approximate
Tue 12:48:00 AM 20.2761 -92.1420 255° West  Level FlightAware Approximate
Tue 12:49:00 AM 20.2462 -92.2569 254° West  Level FlightAware Approximate
Tue 12:50:00 AM 20.2162 -92.3716 254° West  Level FlightAware Approximate
Tue 12:51:00 AM 20.1862 -92.4864 255° West  Level FlightAware Approximate
Tue 12:52:00 AM 20.1563 -92.6012 255° West  Level FlightAware Approximate
Tue 12:53:00 AM 20.1264 -92.7159 254° West  Level FlightAware Approximate
Tue 12:54:00 AM 20.0961 -92.8305 253° West  Level FlightAware Approximate
Tue 12:55:00 AM 20.0637 -92.9445 253° West  Level FlightAware Approximate
Tue 12:56:00 AM 20.0313 -93.0584 253° West  Level FlightAware Approximate
Tue 12:57:00 AM 19.9988 -93.1722 253° West  Level FlightAware Approximate
Tue 12:58:00 AM 19.9662 -93.2860 253° West  Level FlightAware Approximate
Tue 12:59:00 AM 19.9336 -93.3998 253° West  Level FlightAware Approximate
Tue 01:00:00 AM 19.9009 -93.5135 253° West  Level FlightAware Approximate
Tue 01:01:00 AM 19.8693 -93.6276 254° West  Level FlightAware Approximate
Tue 01:02:00 AM 19.8377 -93.7416 254° West  Level FlightAware Approximate
Tue 01:03:00 AM 19.8061 -93.8556 254° West  Level FlightAware Approximate
Tue 01:04:00 AM 19.7743 -93.9695 254° West  Level FlightAware Approximate
Tue 01:05:00 AM 19.7425 -94.0834 253° West  Level FlightAware Approximate
Tue 01:06:00 AM 19.7106 -94.1972 253° West  Level FlightAware Approximate
Tue 01:07:00 AM 19.6786 -94.3110 253° West  Level FlightAware Approximate
Tue 01:08:00 AM 19.6466 -94.4248 253° West  Level FlightAware Approximate
Tue 01:09:00 AM 19.6145 -94.5385 253° West  Level FlightAware Approximate
Tue 01:10:00 AM 19.5823 -94.6522 253° West  Level FlightAware Approximate
Tue 01:11:00 AM 19.5501 -94.7658 253° West  Level FlightAware Approximate
Tue 01:12:00 AM 19.5178 -94.8793 253° West  Level FlightAware Approximate
Tue 01:13:00 AM 19.4854 -94.9929 253° West  Level FlightAware Approximate
Tue 01:14:00 AM 19.4523 -95.1061 253° West  Level FlightAware Approximate
Tue 01:15:00 AM 19.4191 -95.2194 253° West  Level FlightAware Approximate
Tue 01:16:00 AM 19.3859 -95.3325 253° West  Level FlightAware Approximate
Tue 01:17:00 AM 19.3526 -95.4457 253° West  Level FlightAware Approximate
Tue 01:18:00 AM 19.3192 -95.5587 253° West  Level FlightAware Approximate
Tue 01:19:00 AM 19.2858 -95.6718 253° West  Level FlightAware Approximate
Tue 01:20:00 AM 19.2522 -95.7848 253° West  Level FlightAware Approximate
Tue 01:21:00 AM 19.2187 -95.8977 253° West  Level FlightAware Approximate
Tue 01:22:00 AM 19.1850 -96.0106 252° West  Level FlightAware Approximate
Tue 01:23:00 AM 19.1513 -96.1235 252° West  Level FlightAware Approximate
Tue 01:24:00 AM 19.1343 -96.2389 271° West  Level FlightAware Approximate
Tue 01:25:00 AM 19.1362 -96.3572 271° West  Level FlightAware Approximate
Tue 01:26:00 AM 19.1380 -96.4755 271° West  Level FlightAware Approximate
Tue 01:27:00 AM 19.1398 -96.5939 271° West  Level FlightAware Approximate
Tue 01:28:00 AM 19.1415 -96.7122 271° West  Level FlightAware Approximate
Tue 01:29:00 AM 19.1431 -96.8305 271° West  Level FlightAware Approximate
Tue 01:30:00 AM 19.1446 -96.9489 271° West  Level FlightAware Approximate
Tue 01:31:00 AM 19.1461 -97.0672 271° West  Level FlightAware Approximate
Tue 01:32:00 AM 19.1475 -97.1856 271° West  Level FlightAware Approximate
Tue 01:33:00 AM 19.1488 -97.3039 271° West  Level FlightAware Approximate
Tue 01:34:00 AM 19.1500 -97.4222 270° West  Level FlightAware Approximate
Tue 01:35:00 AM 19.1501 -97.5406 270° West  Level FlightAware Approximate
Tue 01:36:00 AM 19.1501 -97.6589 270° West  Level FlightAware Approximate
Tue 01:37:00 AM 19.1501 -97.7773 270° West  Level FlightAware Approximate
Tue 01:38:00 AM 19.1500 -97.8957 270° West  Level FlightAware Approximate
Tue 01:39:00 AM 19.1501 -98.0140 270° West  Level FlightAware Approximate
Tue 01:40:00 AM 19.1500 -98.1324 270° West  Level FlightAware Approximate
Tue 01:41:00 AM 19.1500 -98.2507 270° West  Level FlightAware Approximate
Tue 01:42:00 AM 19.1486 -98.3686 233° Southwest  Level FlightAware Approximate
Tue 01:43:00 AM 19.0812 -98.4630 233° Southwest  Level FlightAware Approximate
Tue 01:44:00 AM 19.0093 -98.5528 235° Southwest  Level FlightAware Approximate
Tue 01:45:00 AM 18.9449 -98.6495 235° Southwest  Level FlightAware Approximate
Tue 01:46:00 AM 18.8804 -98.7461 235° Southwest  Level FlightAware Approximate
Tue 01:47:00 AM 18.8182 -98.8442 237° Southwest  Level FlightAware Approximate
Tue 01:48:00 AM 18.7690 -98.9490 253° West  Level FlightAware Approximate
Tue 01:49:00 AM 18.7358 -99.0617 253° West  Level FlightAware Approximate
Tue 01:50:00 AM 18.7026 -99.1745 253° West  Level FlightAware Approximate
Tue 01:51:00 AM 18.6952 -99.2643 335° Northwest  Level FlightAware Approximate
Tue 01:52:00 AM 18.7971 -99.3127 338° Northwest  Level FlightAware Approximate
Tue 01:53:00 AM 18.9011 -99.3560 338° Northwest  Level FlightAware Approximate
Tue 01:54:00 AM 19.0048 -99.4003 337° Northwest  Level FlightAware Approximate
Tue 01:55:00 AM 19.1079 -99.4461 337° Northwest  Level FlightAware Approximate
Tue 01:56:00 AM 19.2036 -99.5018 335° Northwest  Level FlightAware Approximate
Tue 01:57:00 AM 19.3060 -99.5491 339° North  Level FlightAware Approximate
Tue 01:58:00 AM 19.3371 -99.5660 North  Level Estimated
Tue 01:59:00 AM 19.3371 -99.5660 North  Level Estimated
Tue 02:00:00 AM 19.3371 -99.5660 North  Level Estimated
Tue 02:01:00 AM 19.3371 -99.5660 North  Level Estimated
Tue 02:02:00 AM 19.3371 -99.5660 North  Level Estimated
Tue 02:03:00 AM 19.3371 -99.5660 North  Level Estimated
Tue 02:04:00 AM 19.3371 -99.5660 North  Level Estimated
Tue 02:05:00 AM 19.3371 -99.5660 North  Level Estimated
Tue 02:06:00 AM 19.3371 -99.5660 North  Level Estimated
Tue 02:07:00 AM 19.3371 -99.5660 North  Level Estimated
Tue 02:08:00 AM 19.3371 -99.5660 North  Level Estimated
Tue 02:09:00 AM 19.3371 -99.5660 North  Level Estimated
Tue 02:10:00 AM 19.3371 -99.5660 North  Level Estimated
Tue 02:11:00 AM 19.3371 -99.5660 North  Level Estimated
Tue 02:12:00 AM 19.3371 -99.5660 North  Level Estimated
Tue 02:13:00 AM 19.3371 -99.5660 North  Level Estimated
Tue 02:14:00 AM 19.3371 -99.5660 North  Level Estimated
Tue 02:15:00 AM 19.3371 -99.5660 North  Level Estimated

Login

Don't have an account? Register now (free) for customized features, flight alerts, and more!